sensor_id;sensor_type;location;lat;lon;timestamp;temperature;humidity
31675;DHT22;18276;45.520;11.018;2023-06-10T00:01:44;21.40;77.00
31675;DHT22;18276;45.520;11.018;2023-06-10T00:04:14;21.40;77.20
31675;DHT22;18276;45.520;11.018;2023-06-10T00:06:44;21.40;77.50
31675;DHT22;18276;45.520;11.018;2023-06-10T00:09:11;21.30;77.50
31675;DHT22;18276;45.520;11.018;2023-06-10T00:11:38;21.30;77.70
31675;DHT22;18276;45.520;11.018;2023-06-10T00:14:06;21.30;77.70
31675;DHT22;18276;45.520;11.018;2023-06-10T00:16:33;21.20;77.60
31675;DHT22;18276;45.520;11.018;2023-06-10T00:19:00;21.20;77.80
31675;DHT22;18276;45.520;11.018;2023-06-10T00:21:27;21.20;77.50
31675;DHT22;18276;45.520;11.018;2023-06-10T00:23:54;21.20;77.40
31675;DHT22;18276;45.520;11.018;2023-06-10T00:26:22;21.20;77.40
31675;DHT22;18276;45.520;11.018;2023-06-10T00:28:49;21.20;77.30
31675;DHT22;18276;45.520;11.018;2023-06-10T00:31:16;21.20;77.20
31675;DHT22;18276;45.520;11.018;2023-06-10T00:33:44;21.20;77.20
31675;DHT22;18276;45.520;11.018;2023-06-10T00:36:11;21.20;77.10
31675;DHT22;18276;45.520;11.018;2023-06-10T00:38:37;21.20;77.00
31675;DHT22;18276;45.520;11.018;2023-06-10T00:41:04;21.20;77.00
31675;DHT22;18276;45.520;11.018;2023-06-10T00:43:31;21.20;77.00
31675;DHT22;18276;45.520;11.018;2023-06-10T00:45:58;21.20;77.10
31675;DHT22;18276;45.520;11.018;2023-06-10T00:48:26;21.10;77.10
31675;DHT22;18276;45.520;11.018;2023-06-10T00:50:53;21.20;77.20
31675;DHT22;18276;45.520;11.018;2023-06-10T00:53:21;21.20;77.20
31675;DHT22;18276;45.520;11.018;2023-06-10T00:55:49;21.20;77.20
31675;DHT22;18276;45.520;11.018;2023-06-10T00:58:16;21.20;77.30
31675;DHT22;18276;45.520;11.018;2023-06-10T01:00:43;21.10;77.40
31675;DHT22;18276;45.520;11.018;2023-06-10T01:03:12;21.10;77.70
31675;DHT22;18276;45.520;11.018;2023-06-10T01:05:39;21.10;77.80
31675;DHT22;18276;45.520;11.018;2023-06-10T01:08:31;21.10;78.00
31675;DHT22;18276;45.520;11.018;2023-06-10T01:10:57;21.10;78.30
31675;DHT22;18276;45.520;11.018;2023-06-10T01:13:25;21.00;78.50
31675;DHT22;18276;45.520;11.018;2023-06-10T01:15:57;21.00;78.70
31675;DHT22;18276;45.520;11.018;2023-06-10T01:18:29;21.00;78.80
31675;DHT22;18276;45.520;11.018;2023-06-10T01:20:57;21.00;79.10
31675;DHT22;18276;45.520;11.018;2023-06-10T01:23:24;20.90;79.30
31675;DHT22;18276;45.520;11.018;2023-06-10T01:26:01;20.90;79.40
31675;DHT22;18276;45.520;11.018;2023-06-10T01:33:42;20.90;80.00
31675;DHT22;18276;45.520;11.018;2023-06-10T01:36:09;20.80;80.10
31675;DHT22;18276;45.520;11.018;2023-06-10T01:38:42;20.80;80.30
31675;DHT22;18276;45.520;11.018;2023-06-10T01:41:10;20.80;80.60
31675;DHT22;18276;45.520;11.018;2023-06-10T01:43:39;20.80;80.80
31675;DHT22;18276;45.520;11.018;2023-06-10T01:46:06;20.70;81.10
31675;DHT22;18276;45.520;11.018;2023-06-10T01:48:33;20.70;81.40
31675;DHT22;18276;45.520;11.018;2023-06-10T01:51:00;20.70;81.60
31675;DHT22;18276;45.520;11.018;2023-06-10T01:53:27;20.70;81.80
31675;DHT22;18276;45.520;11.018;2023-06-10T01:55:54;20.60;82.00
31675;DHT22;18276;45.520;11.018;2023-06-10T01:58:22;20.60;82.20
31675;DHT22;18276;45.520;11.018;2023-06-10T02:00:49;20.60;82.40
31675;DHT22;18276;45.520;11.018;2023-06-10T02:03:16;20.50;82.60
31675;DHT22;18276;45.520;11.018;2023-06-10T02:05:43;20.50;82.90
31675;DHT22;18276;45.520;11.018;2023-06-10T02:08:10;20.50;83.20
31675;DHT22;18276;45.520;11.018;2023-06-10T02:10:37;20.50;83.50
31675;DHT22;18276;45.520;11.018;2023-06-10T02:13:04;20.50;83.80
31675;DHT22;18276;45.520;11.018;2023-06-10T02:15:30;20.40;84.10
31675;DHT22;18276;45.520;11.018;2023-06-10T02:17:57;20.40;84.30
31675;DHT22;18276;45.520;11.018;2023-06-10T02:20:24;20.40;84.60
31675;DHT22;18276;45.520;11.018;2023-06-10T02:22:51;20.40;84.90
31675;DHT22;18276;45.520;11.018;2023-06-10T02:25:18;20.40;85.20
31675;DHT22;18276;45.520;11.018;2023-06-10T02:27:45;20.40;85.50
31675;DHT22;18276;45.520;11.018;2023-06-10T02:30:12;20.40;85.60
31675;DHT22;18276;45.520;11.018;2023-06-10T02:32:40;20.40;85.70
31675;DHT22;18276;45.520;11.018;2023-06-10T02:35:08;20.50;85.80
31675;DHT22;18276;45.520;11.018;2023-06-10T02:37:36;20.50;85.90
31675;DHT22;18276;45.520;11.018;2023-06-10T02:40:03;20.40;86.00
31675;DHT22;18276;45.520;11.018;2023-06-10T02:42:31;20.50;86.20
31675;DHT22;18276;45.520;11.018;2023-06-10T02:44:59;20.50;86.40
31675;DHT22;18276;45.520;11.018;2023-06-10T02:47:34;20.40;86.50
31675;DHT22;18276;45.520;11.018;2023-06-10T02:50:02;20.50;86.80
31675;DHT22;18276;45.520;11.018;2023-06-10T02:52:35;20.50;87.20
31675;DHT22;18276;45.520;11.018;2023-06-10T02:55:02;20.40;87.30
31675;DHT22;18276;45.520;11.018;2023-06-10T02:57:29;20.40;87.60
31675;DHT22;18276;45.520;11.018;2023-06-10T02:59:56;20.40;87.80
31675;DHT22;18276;45.520;11.018;2023-06-10T03:02:25;20.40;88.00
31675;DHT22;18276;45.520;11.018;2023-06-10T03:04:56;20.40;88.20
31675;DHT22;18276;45.520;11.018;2023-06-10T03:07:23;20.40;88.20
31675;DHT22;18276;45.520;11.018;2023-06-10T03:09:52;20.40;88.40
31675;DHT22;18276;45.520;11.018;2023-06-10T03:12:19;20.40;88.50
31675;DHT22;18276;45.520;11.018;2023-06-10T03:14:48;20.30;88.70
31675;DHT22;18276;45.520;11.018;2023-06-10T03:17:16;20.30;88.90
31675;DHT22;18276;45.520;11.018;2023-06-10T03:19:44;20.30;89.20
31675;DHT22;18276;45.520;11.018;2023-06-10T03:22:13;20.20;89.50
31675;DHT22;18276;45.520;11.018;2023-06-10T03:24:50;20.20;89.90
31675;DHT22;18276;45.520;11.018;2023-06-10T03:27:18;20.20;90.00
31675;DHT22;18276;45.520;11.018;2023-06-10T03:29:49;20.20;90.10
31675;DHT22;18276;45.520;11.018;2023-06-10T03:32:16;20.20;90.20
31675;DHT22;18276;45.520;11.018;2023-06-10T03:34:44;20.20;90.20
31675;DHT22;18276;45.520;11.018;2023-06-10T03:37:14;20.30;90.30
31675;DHT22;18276;45.520;11.018;2023-06-10T03:39:43;20.20;90.30
31675;DHT22;18276;45.520;11.018;2023-06-10T03:42:10;20.30;90.50
31675;DHT22;18276;45.520;11.018;2023-06-10T03:44:37;20.30;90.50
31675;DHT22;18276;45.520;11.018;2023-06-10T03:47:04;20.30;90.50
31675;DHT22;18276;45.520;11.018;2023-06-10T03:49:32;20.30;90.60
31675;DHT22;18276;45.520;11.018;2023-06-10T03:52:01;20.30;90.60
31675;DHT22;18276;45.520;11.018;2023-06-10T03:54:28;20.30;90.70
31675;DHT22;18276;45.520;11.018;2023-06-10T03:56:55;20.30;90.80
31675;DHT22;18276;45.520;11.018;2023-06-10T03:59:22;20.30;90.80
31675;DHT22;18276;45.520;11.018;2023-06-10T04:01:49;20.40;90.90
31675;DHT22;18276;45.520;11.018;2023-06-10T04:04:16;20.40;91.00
31675;DHT22;18276;45.520;11.018;2023-06-10T04:06:44;20.40;91.20
31675;DHT22;18276;45.520;11.018;2023-06-10T04:09:11;20.40;91.30
31675;DHT22;18276;45.520;11.018;2023-06-10T04:11:39;20.30;91.50
31675;DHT22;18276;45.520;11.018;2023-06-10T04:14:06;20.40;91.50
31675;DHT22;18276;45.520;11.018;2023-06-10T04:16:34;20.40;91.50
31675;DHT22;18276;45.520;11.018;2023-06-10T04:19:02;20.40;91.50
31675;DHT22;18276;45.520;11.018;2023-06-10T04:21:29;20.40;91.60
31675;DHT22;18276;45.520;11.018;2023-06-10T04:23:56;20.50;91.80
31675;DHT22;18276;45.520;11.018;2023-06-10T04:26:24;20.50;91.90
31675;DHT22;18276;45.520;11.018;2023-06-10T04:28:52;20.50;91.90
31675;DHT22;18276;45.520;11.018;2023-06-10T04:31:19;20.50;92.00
31675;DHT22;18276;45.520;11.018;2023-06-10T04:33:48;20.50;92.10
31675;DHT22;18276;45.520;11.018;2023-06-10T04:36:15;20.50;92.00
31675;DHT22;18276;45.520;11.018;2023-06-10T04:38:42;20.60;92.10
31675;DHT22;18276;45.520;11.018;2023-06-10T04:41:09;20.60;92.20
31675;DHT22;18276;45.520;11.018;2023-06-10T04:43:36;20.60;92.40
31675;DHT22;18276;45.520;11.018;2023-06-10T04:46:04;20.70;92.40
31675;DHT22;18276;45.520;11.018;2023-06-10T04:48:35;20.70;92.00
31675;DHT22;18276;45.520;11.018;2023-06-10T04:51:03;20.70;91.90
31675;DHT22;18276;45.520;11.018;2023-06-10T04:53:30;20.70;91.80
31675;DHT22;18276;45.520;11.018;2023-06-10T04:55:57;20.60;91.80
31675;DHT22;18276;45.520;11.018;2023-06-10T04:58:24;20.70;91.90
31675;DHT22;18276;45.520;11.018;2023-06-10T05:00:51;20.70;91.90
31675;DHT22;18276;45.520;11.018;2023-06-10T05:03:18;20.70;91.90
31675;DHT22;18276;45.520;11.018;2023-06-10T05:05:45;20.80;92.10
31675;DHT22;18276;45.520;11.018;2023-06-10T05:08:12;20.90;92.20
31675;DHT22;18276;45.520;11.018;2023-06-10T05:10:39;20.90;92.20
31675;DHT22;18276;45.520;11.018;2023-06-10T05:13:06;21.00;92.20
31675;DHT22;18276;45.520;11.018;2023-06-10T05:15:32;21.00;92.20
31675;DHT22;18276;45.520;11.018;2023-06-10T05:17:59;21.10;92.20
31675;DHT22;18276;45.520;11.018;2023-06-10T05:20:29;21.10;92.10
31675;DHT22;18276;45.520;11.018;2023-06-10T05:22:56;21.20;92.10
31675;DHT22;18276;45.520;11.018;2023-06-10T05:25:24;21.30;92.00
31675;DHT22;18276;45.520;11.018;2023-06-10T05:27:51;21.30;91.80
31675;DHT22;18276;45.520;11.018;2023-06-10T05:30:18;21.40;91.70
31675;DHT22;18276;45.520;11.018;2023-06-10T05:32:45;21.50;91.70
31675;DHT22;18276;45.520;11.018;2023-06-10T05:35:12;21.50;91.60
31675;DHT22;18276;45.520;11.018;2023-06-10T05:37:39;21.60;91.50
31675;DHT22;18276;45.520;11.018;2023-06-10T05:40:06;21.70;91.30
31675;DHT22;18276;45.520;11.018;2023-06-10T05:42:33;21.70;91.20
31675;DHT22;18276;45.520;11.018;2023-06-10T05:45:01;21.80;91.10
31675;DHT22;18276;45.520;11.018;2023-06-10T05:47:28;21.90;91.10
31675;DHT22;18276;45.520;11.018;2023-06-10T05:49:55;22.00;90.90
31675;DHT22;18276;45.520;11.018;2023-06-10T05:52:23;22.20;90.80
31675;DHT22;18276;45.520;11.018;2023-06-10T05:54:50;22.30;90.60
31675;DHT22;18276;45.520;11.018;2023-06-10T05:57:16;22.40;90.30
31675;DHT22;18276;45.520;11.018;2023-06-10T05:59:44;22.60;89.90
31675;DHT22;18276;45.520;11.018;2023-06-10T06:02:11;22.70;89.10
31675;DHT22;18276;45.520;11.018;2023-06-10T06:04:38;22.90;88.40
31675;DHT22;18276;45.520;11.018;2023-06-10T06:07:05;23.10;87.60
31675;DHT22;18276;45.520;11.018;2023-06-10T06:09:32;23.30;86.80
31675;DHT22;18276;45.520;11.018;2023-06-10T06:11:59;23.40;85.90
31675;DHT22;18276;45.520;11.018;2023-06-10T06:14:26;23.60;84.90
31675;DHT22;18276;45.520;11.018;2023-06-10T06:16:53;23.80;83.90
31675;DHT22;18276;45.520;11.018;2023-06-10T06:19:20;24.00;83.00
31675;DHT22;18276;45.520;11.018;2023-06-10T06:21:47;24.10;82.10
31675;DHT22;18276;45.520;11.018;2023-06-10T06:24:15;24.20;81.40
31675;DHT22;18276;45.520;11.018;2023-06-10T06:26:42;24.30;80.00
31675;DHT22;18276;45.520;11.018;2023-06-10T06:29:09;24.30;79.10
31675;DHT22;18276;45.520;11.018;2023-06-10T06:31:36;24.40;78.80
31675;DHT22;18276;45.520;11.018;2023-06-10T06:34:03;24.40;78.50
31675;DHT22;18276;45.520;11.018;2023-06-10T06:36:30;24.30;78.40
31675;DHT22;18276;45.520;11.018;2023-06-10T06:38:57;24.10;78.70
31675;DHT22;18276;45.520;11.018;2023-06-10T06:41:26;24.00;79.20
31675;DHT22;18276;45.520;11.018;2023-06-10T06:43:55;24.00;79.90
31675;DHT22;18276;45.520;11.018;2023-06-10T06:46:23;23.90;79.80
31675;DHT22;18276;45.520;11.018;2023-06-10T06:48:50;23.80;79.90
31675;DHT22;18276;45.520;11.018;2023-06-10T06:51:17;23.80;80.00
31675;DHT22;18276;45.520;11.018;2023-06-10T06:53:44;23.70;80.30
31675;DHT22;18276;45.520;11.018;2023-06-10T06:56:12;23.70;80.60
31675;DHT22;18276;45.520;11.018;2023-06-10T06:58:39;23.70;80.30
31675;DHT22;18276;45.520;11.018;2023-06-10T07:01:06;23.60;80.20
31675;DHT22;18276;45.520;11.018;2023-06-10T07:03:33;23.40;80.90
31675;DHT22;18276;45.520;11.018;2023-06-10T07:06:00;23.40;81.20
31675;DHT22;18276;45.520;11.018;2023-06-10T07:08:26;23.40;81.40
31675;DHT22;18276;45.520;11.018;2023-06-10T07:10:53;23.40;81.60
31675;DHT22;18276;45.520;11.018;2023-06-10T07:13:21;23.30;81.90
31675;DHT22;18276;45.520;11.018;2023-06-10T07:15:47;23.30;82.20
31675;DHT22;18276;45.520;11.018;2023-06-10T07:18:15;23.30;82.50
31675;DHT22;18276;45.520;11.018;2023-06-10T07:20:42;23.40;83.20
31675;DHT22;18276;45.520;11.018;2023-06-10T07:23:08;23.50;82.30
31675;DHT22;18276;45.520;11.018;2023-06-10T07:25:35;23.50;82.30
31675;DHT22;18276;45.520;11.018;2023-06-10T07:28:02;23.70;82.20
31675;DHT22;18276;45.520;11.018;2023-06-10T07:30:29;23.80;81.50
31675;DHT22;18276;45.520;11.018;2023-06-10T07:32:56;24.00;81.60
31675;DHT22;18276;45.520;11.018;2023-06-10T07:35:23;24.10;80.40
31675;DHT22;18276;45.520;11.018;2023-06-10T07:37:50;24.20;80.20
31675;DHT22;18276;45.520;11.018;2023-06-10T07:40:17;24.30;80.20
31675;DHT22;18276;45.520;11.018;2023-06-10T07:42:44;24.40;79.70
31675;DHT22;18276;45.520;11.018;2023-06-10T07:45:11;24.40;79.30
31675;DHT22;18276;45.520;11.018;2023-06-10T07:47:38;24.50;78.70
31675;DHT22;18276;45.520;11.018;2023-06-10T07:50:05;24.80;78.20
31675;DHT22;18276;45.520;11.018;2023-06-10T07:52:32;25.20;76.80
31675;DHT22;18276;45.520;11.018;2023-06-10T07:55:00;25.80;76.10
31675;DHT22;18276;45.520;11.018;2023-06-10T07:57:26;26.50;73.80
31675;DHT22;18276;45.520;11.018;2023-06-10T07:59:53;26.70;71.50
31675;DHT22;18276;45.520;11.018;2023-06-10T08:02:21;26.80;71.10
31675;DHT22;18276;45.520;11.018;2023-06-10T08:04:51;26.80;70.60
31675;DHT22;18276;45.520;11.018;2023-06-10T08:07:18;26.60;71.20
31675;DHT22;18276;45.520;11.018;2023-06-10T08:09:45;26.40;71.40
31675;DHT22;18276;45.520;11.018;2023-06-10T08:12:12;26.30;72.00
31675;DHT22;18276;45.520;11.018;2023-06-10T08:14:42;26.50;71.50
31675;DHT22;18276;45.520;11.018;2023-06-10T08:17:10;26.50;71.30
31675;DHT22;18276;45.520;11.018;2023-06-10T08:19:37;26.50;71.20
31675;DHT22;18276;45.520;11.018;2023-06-10T08:22:04;26.50;71.20
31675;DHT22;18276;45.520;11.018;2023-06-10T08:24:31;26.80;71.80
31675;DHT22;18276;45.520;11.018;2023-06-10T08:26:58;27.60;70.10
31675;DHT22;18276;45.520;11.018;2023-06-10T08:29:25;28.40;66.10
31675;DHT22;18276;45.520;11.018;2023-06-10T08:31:52;29.10;64.50
31675;DHT22;18276;45.520;11.018;2023-06-10T08:34:19;29.70;62.00
31675;DHT22;18276;45.520;11.018;2023-06-10T08:36:46;30.10;60.60
31675;DHT22;18276;45.520;11.018;2023-06-10T08:39:13;30.00;60.30
31675;DHT22;18276;45.520;11.018;2023-06-10T08:41:42;29.80;60.70
31675;DHT22;18276;45.520;11.018;2023-06-10T08:44:10;29.70;61.20
31675;DHT22;18276;45.520;11.018;2023-06-10T08:46:39;29.60;60.70
31675;DHT22;18276;45.520;11.018;2023-06-10T08:49:10;29.50;61.40
31675;DHT22;18276;45.520;11.018;2023-06-10T08:51:37;29.60;61.50
31675;DHT22;18276;45.520;11.018;2023-06-10T08:54:17;29.80;60.00
31675;DHT22;18276;45.520;11.018;2023-06-10T08:56:47;29.40;60.60
31675;DHT22;18276;45.520;11.018;2023-06-10T08:59:15;29.10;62.20
31675;DHT22;18276;45.520;11.018;2023-06-10T09:01:44;29.40;62.30
31675;DHT22;18276;45.520;11.018;2023-06-10T09:04:12;30.00;61.10
31675;DHT22;18276;45.520;11.018;2023-06-10T09:06:40;30.30;59.80
31675;DHT22;18276;45.520;11.018;2023-06-10T09:09:07;30.50;59.30
31675;DHT22;18276;45.520;11.018;2023-06-10T09:11:34;30.80;58.20
31675;DHT22;18276;45.520;11.018;2023-06-10T09:14:01;31.00;58.30
31675;DHT22;18276;45.520;11.018;2023-06-10T09:16:28;31.30;56.60
31675;DHT22;18276;45.520;11.018;2023-06-10T09:18:55;31.20;56.50
31675;DHT22;18276;45.520;11.018;2023-06-10T09:21:22;31.20;56.20
31675;DHT22;18276;45.520;11.018;2023-06-10T09:23:49;31.80;55.40
31675;DHT22;18276;45.520;11.018;2023-06-10T09:26:17;32.00;50.80
31675;DHT22;18276;45.520;11.018;2023-06-10T09:28:44;31.80;50.00
31675;DHT22;18276;45.520;11.018;2023-06-10T09:31:14;32.40;51.20
31675;DHT22;18276;45.520;11.018;2023-06-10T09:33:45;33.50;49.30
31675;DHT22;18276;45.520;11.018;2023-06-10T09:36:12;34.10;46.90
31675;DHT22;18276;45.520;11.018;2023-06-10T09:38:49;33.90;46.00
31675;DHT22;18276;45.520;11.018;2023-06-10T09:41:16;34.40;45.90
31675;DHT22;18276;45.520;11.018;2023-06-10T09:43:43;34.60;44.60
31675;DHT22;18276;45.520;11.018;2023-06-10T09:46:15;34.60;44.10
31675;DHT22;18276;45.520;11.018;2023-06-10T09:48:43;34.70;44.00
31675;DHT22;18276;45.520;11.018;2023-06-10T09:51:12;34.40;43.30
31675;DHT22;18276;45.520;11.018;2023-06-10T09:53:39;33.80;44.00
31675;DHT22;18276;45.520;11.018;2023-06-10T09:56:06;33.10;44.20
31675;DHT22;18276;45.520;11.018;2023-06-10T09:58:39;32.40;45.10
31675;DHT22;18276;45.520;11.018;2023-06-10T10:01:10;32.00;45.80
31675;DHT22;18276;45.520;11.018;2023-06-10T10:03:48;31.40;46.70
31675;DHT22;18276;45.520;11.018;2023-06-10T10:06:16;31.00;47.80
31675;DHT22;18276;45.520;11.018;2023-06-10T10:08:47;30.80;48.00
31675;DHT22;18276;45.520;11.018;2023-06-10T10:11:14;30.80;47.70
31675;DHT22;18276;45.520;11.018;2023-06-10T10:13:43;30.90;47.70
31675;DHT22;18276;45.520;11.018;2023-06-10T10:16:12;30.70;47.60
31675;DHT22;18276;45.520;11.018;2023-06-10T10:18:43;30.60;47.70
31675;DHT22;18276;45.520;11.018;2023-06-10T10:21:13;30.40;48.30
31675;DHT22;18276;45.520;11.018;2023-06-10T10:24:16;30.00;48.80
31675;DHT22;18276;45.520;11.018;2023-06-10T10:26:35;29.70;49.00
31675;DHT22;18276;45.520;11.018;2023-06-10T10:29:11;29.60;49.60
31675;DHT22;18276;45.520;11.018;2023-06-10T10:31:41;29.70;49.70
31675;DHT22;18276;45.520;11.018;2023-06-10T10:34:12;29.70;49.60
31675;DHT22;18276;45.520;11.018;2023-06-10T10:36:39;29.70;49.40
31675;DHT22;18276;45.520;11.018;2023-06-10T10:39:06;29.80;49.20
31675;DHT22;18276;45.520;11.018;2023-06-10T10:41:34;29.90;49.00
31675;DHT22;18276;45.520;11.018;2023-06-10T10:44:03;30.10;48.40
31675;DHT22;18276;45.520;11.018;2023-06-10T10:46:44;30.10;48.30
31675;DHT22;18276;45.520;11.018;2023-06-10T10:49:11;30.20;49.00
31675;DHT22;18276;45.520;11.018;2023-06-10T10:52:01;30.40;48.00
31675;DHT22;18276;45.520;11.018;2023-06-10T10:54:31;30.20;48.00
31675;DHT22;18276;45.520;11.018;2023-06-10T11:02:17;30.70;48.90
31675;DHT22;18276;45.520;11.018;2023-06-10T11:04:46;31.10;48.30
31675;DHT22;18276;45.520;11.018;2023-06-10T11:07:13;31.40;49.00
31675;DHT22;18276;45.520;11.018;2023-06-10T11:10:00;31.30;49.70
31675;DHT22;18276;45.520;11.018;2023-06-10T11:15:13;31.20;48.60
31675;DHT22;18276;45.520;11.018;2023-06-10T11:21:09;31.50;47.20
31675;DHT22;18276;45.520;11.018;2023-06-10T11:31:49;31.50;48.20
31675;DHT22;18276;45.520;11.018;2023-06-10T11:34:07;31.40;48.30
31675;DHT22;18276;45.520;11.018;2023-06-10T11:36:36;31.30;48.70
31675;DHT22;18276;45.520;11.018;2023-06-10T11:39:04;31.30;48.40
31675;DHT22;18276;45.520;11.018;2023-06-10T11:41:32;31.30;48.30
31675;DHT22;18276;45.520;11.018;2023-06-10T11:44:07;31.20;48.00
31675;DHT22;18276;45.520;11.018;2023-06-10T11:46:34;31.20;48.40
31675;DHT22;18276;45.520;11.018;2023-06-10T11:49:02;31.10;49.70
31675;DHT22;18276;45.520;11.018;2023-06-10T11:51:32;31.00;51.50
31675;DHT22;18276;45.520;11.018;2023-06-10T11:53:59;30.80;52.60
31675;DHT22;18276;45.520;11.018;2023-06-10T11:56:27;30.70;54.40
31675;DHT22;18276;45.520;11.018;2023-06-10T11:58:55;30.60;55.40
31675;DHT22;18276;45.520;11.018;2023-06-10T12:01:24;30.60;55.50
31675;DHT22;18276;45.520;11.018;2023-06-10T12:04:09;30.60;55.50
31675;DHT22;18276;45.520;11.018;2023-06-10T12:06:46;30.60;54.90
31675;DHT22;18276;45.520;11.018;2023-06-10T12:11:54;30.70;54.30
31675;DHT22;18276;45.520;11.018;2023-06-10T12:17:07;30.90;54.10
31675;DHT22;18276;45.520;11.018;2023-06-10T12:19:38;30.80;53.70
31675;DHT22;18276;45.520;11.018;2023-06-10T12:22:07;30.70;51.90
31675;DHT22;18276;45.520;11.018;2023-06-10T12:24:34;30.40;51.30
31675;DHT22;18276;45.520;11.018;2023-06-10T12:27:12;30.20;52.50
31675;DHT22;18276;45.520;11.018;2023-06-10T12:29:39;30.40;53.70
31675;DHT22;18276;45.520;11.018;2023-06-10T12:32:17;30.60;54.30
31675;DHT22;18276;45.520;11.018;2023-06-10T12:34:45;30.80;54.00
31675;DHT22;18276;45.520;11.018;2023-06-10T12:37:12;30.90;53.50
31675;DHT22;18276;45.520;11.018;2023-06-10T12:39:43;31.10;53.20
31675;DHT22;18276;45.520;11.018;2023-06-10T12:42:21;31.30;52.90
31675;DHT22;18276;45.520;11.018;2023-06-10T12:44:52;31.50;52.80
31675;DHT22;18276;45.520;11.018;2023-06-10T12:47:19;31.50;52.30
31675;DHT22;18276;45.520;11.018;2023-06-10T12:49:46;31.70;52.30
31675;DHT22;18276;45.520;11.018;2023-06-10T12:52:13;31.70;51.80
31675;DHT22;18276;45.520;11.018;2023-06-10T12:54:40;31.80;51.80
31675;DHT22;18276;45.520;11.018;2023-06-10T12:57:07;31.70;51.30
31675;DHT22;18276;45.520;11.018;2023-06-10T12:59:34;31.60;51.30
31675;DHT22;18276;45.520;11.018;2023-06-10T13:02:01;31.50;51.40
31675;DHT22;18276;45.520;11.018;2023-06-10T13:04:28;31.30;51.10
31675;DHT22;18276;45.520;11.018;2023-06-10T13:06:55;31.20;50.70
31675;DHT22;18276;45.520;11.018;2023-06-10T13:09:22;31.20;50.40
31675;DHT22;18276;45.520;11.018;2023-06-10T13:11:49;31.20;50.30
31675;DHT22;18276;45.520;11.018;2023-06-10T13:14:16;31.10;50.30
31675;DHT22;18276;45.520;11.018;2023-06-10T13:16:43;31.10;50.30
31675;DHT22;18276;45.520;11.018;2023-06-10T13:19:11;31.10;50.10
31675;DHT22;18276;45.520;11.018;2023-06-10T13:21:38;31.10;50.10
31675;DHT22;18276;45.520;11.018;2023-06-10T13:24:07;31.20;50.10
31675;DHT22;18276;45.520;11.018;2023-06-10T13:26:34;31.20;50.20
31675;DHT22;18276;45.520;11.018;2023-06-10T13:29:01;31.20;49.80
31675;DHT22;18276;45.520;11.018;2023-06-10T13:31:28;31.30;50.00
31675;DHT22;18276;45.520;11.018;2023-06-10T13:33:55;31.40;49.30
31675;DHT22;18276;45.520;11.018;2023-06-10T13:36:22;31.30;48.60
31675;DHT22;18276;45.520;11.018;2023-06-10T13:38:49;31.10;48.70
31675;DHT22;18276;45.520;11.018;2023-06-10T13:41:16;31.10;49.00
31675;DHT22;18276;45.520;11.018;2023-06-10T13:43:43;31.20;49.40
31675;DHT22;18276;45.520;11.018;2023-06-10T13:46:10;31.30;49.20
31675;DHT22;18276;45.520;11.018;2023-06-10T13:48:37;31.40;49.40
31675;DHT22;18276;45.520;11.018;2023-06-10T13:51:04;31.50;49.20
31675;DHT22;18276;45.520;11.018;2023-06-10T13:53:31;31.50;49.10
31675;DHT22;18276;45.520;11.018;2023-06-10T13:55:58;31.50;49.10
31675;DHT22;18276;45.520;11.018;2023-06-10T13:58:25;31.60;48.80
31675;DHT22;18276;45.520;11.018;2023-06-10T14:00:52;31.50;48.20
31675;DHT22;18276;45.520;11.018;2023-06-10T14:03:19;31.30;48.60
31675;DHT22;18276;45.520;11.018;2023-06-10T14:05:46;31.00;49.10
31675;DHT22;18276;45.520;11.018;2023-06-10T14:08:13;31.00;50.20
31675;DHT22;18276;45.520;11.018;2023-06-10T14:10:40;31.00;50.50
31675;DHT22;18276;45.520;11.018;2023-06-10T14:13:07;31.00;50.50
31675;DHT22;18276;45.520;11.018;2023-06-10T14:15:34;31.00;50.20
31675;DHT22;18276;45.520;11.018;2023-06-10T14:18:02;31.00;50.00
31675;DHT22;18276;45.520;11.018;2023-06-10T14:20:29;31.00;50.10
31675;DHT22;18276;45.520;11.018;2023-06-10T14:22:58;31.10;50.40
31675;DHT22;18276;45.520;11.018;2023-06-10T14:25:25;31.20;50.20
31675;DHT22;18276;45.520;11.018;2023-06-10T14:27:52;31.30;50.10
31675;DHT22;18276;45.520;11.018;2023-06-10T14:30:19;31.30;50.40
31675;DHT22;18276;45.520;11.018;2023-06-10T14:32:46;31.10;50.90
31675;DHT22;18276;45.520;11.018;2023-06-10T14:35:13;30.80;51.50
31675;DHT22;18276;45.520;11.018;2023-06-10T14:37:40;30.70;52.20
31675;DHT22;18276;45.520;11.018;2023-06-10T14:40:07;30.60;52.30
31675;DHT22;18276;45.520;11.018;2023-06-10T14:42:34;30.50;52.80
31675;DHT22;18276;45.520;11.018;2023-06-10T14:45:01;30.50;52.90
31675;DHT22;18276;45.520;11.018;2023-06-10T14:47:28;30.50;52.50
31675;DHT22;18276;45.520;11.018;2023-06-10T14:49:56;30.10;52.70
31675;DHT22;18276;45.520;11.018;2023-06-10T14:52:24;29.80;53.90
31675;DHT22;18276;45.520;11.018;2023-06-10T14:54:51;29.70;54.50
31675;DHT22;18276;45.520;11.018;2023-06-10T14:57:18;29.50;54.80
31675;DHT22;18276;45.520;11.018;2023-06-10T14:59:45;29.50;55.30
31675;DHT22;18276;45.520;11.018;2023-06-10T15:02:12;29.50;55.50
31675;DHT22;18276;45.520;11.018;2023-06-10T15:04:39;29.40;55.30
31675;DHT22;18276;45.520;11.018;2023-06-10T15:07:06;29.50;54.70
31675;DHT22;18276;45.520;11.018;2023-06-10T15:09:33;29.40;54.30
31675;DHT22;18276;45.520;11.018;2023-06-10T15:12:00;29.20;54.30
31675;DHT22;18276;45.520;11.018;2023-06-10T15:14:27;28.90;54.50
31675;DHT22;18276;45.520;11.018;2023-06-10T15:16:54;28.80;54.60
31675;DHT22;18276;45.520;11.018;2023-06-10T15:19:22;28.70;54.90
31675;DHT22;18276;45.520;11.018;2023-06-10T15:21:49;28.60;54.90
31675;DHT22;18276;45.520;11.018;2023-06-10T15:24:16;28.50;54.60
31675;DHT22;18276;45.520;11.018;2023-06-10T15:26:43;28.40;54.60
31675;DHT22;18276;45.520;11.018;2023-06-10T15:29:10;28.40;55.00
31675;DHT22;18276;45.520;11.018;2023-06-10T15:31:37;28.40;55.10
31675;DHT22;18276;45.520;11.018;2023-06-10T15:34:04;28.30;55.20
31675;DHT22;18276;45.520;11.018;2023-06-10T15:36:31;28.00;55.40
31675;DHT22;18276;45.520;11.018;2023-06-10T15:39:03;27.90;56.10
31675;DHT22;18276;45.520;11.018;2023-06-10T15:41:30;27.70;56.50
31675;DHT22;18276;45.520;11.018;2023-06-10T15:43:57;27.70;56.70
31675;DHT22;18276;45.520;11.018;2023-06-10T15:46:29;27.60;56.60
31675;DHT22;18276;45.520;11.018;2023-06-10T15:48:57;27.60;56.40
31675;DHT22;18276;45.520;11.018;2023-06-10T15:51:24;27.60;56.60